sensor_id;sensor_type;location;lat;lon;timestamp;temperature;humidity
1976;DHT22;988;48.016;7.800;2023-06-14T00:00:20;16.30;56.00
1976;DHT22;988;48.016;7.800;2023-06-14T00:02:46;16.40;57.30
1976;DHT22;988;48.016;7.800;2023-06-14T00:05:11;16.40;57.20
1976;DHT22;988;48.016;7.800;2023-06-14T00:07:39;16.40;57.20
1976;DHT22;988;48.016;7.800;2023-06-14T00:10:12;16.40;56.70
1976;DHT22;988;48.016;7.800;2023-06-14T00:12:38;16.40;58.00
1976;DHT22;988;48.016;7.800;2023-06-14T00:15:04;16.40;60.30
1976;DHT22;988;48.016;7.800;2023-06-14T00:17:30;16.30;60.30
1976;DHT22;988;48.016;7.800;2023-06-14T00:19:57;16.20;61.80
1976;DHT22;988;48.016;7.800;2023-06-14T00:22:23;16.10;62.50
1976;DHT22;988;48.016;7.800;2023-06-14T00:24:52;16.00;62.60
1976;DHT22;988;48.016;7.800;2023-06-14T00:27:17;15.90;62.50
1976;DHT22;988;48.016;7.800;2023-06-14T00:29:43;15.80;63.40
1976;DHT22;988;48.016;7.800;2023-06-14T00:32:08;15.70;62.50
1976;DHT22;988;48.016;7.800;2023-06-14T00:34:34;15.60;65.40
1976;DHT22;988;48.016;7.800;2023-06-14T00:37:00;15.60;64.40
1976;DHT22;988;48.016;7.800;2023-06-14T00:39:25;15.50;66.30
1976;DHT22;988;48.016;7.800;2023-06-14T00:41:51;15.40;64.90
1976;DHT22;988;48.016;7.800;2023-06-14T00:44:17;15.30;63.70
1976;DHT22;988;48.016;7.800;2023-06-14T00:46:44;15.40;63.60
1976;DHT22;988;48.016;7.800;2023-06-14T00:49:11;15.10;62.30
1976;DHT22;988;48.016;7.800;2023-06-14T00:51:37;15.10;63.20
1976;DHT22;988;48.016;7.800;2023-06-14T00:54:03;15.10;64.10
1976;DHT22;988;48.016;7.800;2023-06-14T00:56:29;15.00;64.10
1976;DHT22;988;48.016;7.800;2023-06-14T00:58:56;15.00;64.70
1976;DHT22;988;48.016;7.800;2023-06-14T01:01:23;15.10;65.00
1976;DHT22;988;48.016;7.800;2023-06-14T01:03:49;15.00;65.80
1976;DHT22;988;48.016;7.800;2023-06-14T01:12:07;14.90;67.70
1976;DHT22;988;48.016;7.800;2023-06-14T01:14:34;14.80;65.80
1976;DHT22;988;48.016;7.800;2023-06-14T01:17:00;14.80;65.60
1976;DHT22;988;48.016;7.800;2023-06-14T01:19:26;14.80;66.20
1976;DHT22;988;48.016;7.800;2023-06-14T01:21:55;14.70;67.40
1976;DHT22;988;48.016;7.800;2023-06-14T01:24:20;14.70;67.30
1976;DHT22;988;48.016;7.800;2023-06-14T01:26:53;14.70;66.10
1976;DHT22;988;48.016;7.800;2023-06-14T01:29:23;14.60;66.10
1976;DHT22;988;48.016;7.800;2023-06-14T01:31:50;14.60;65.80
1976;DHT22;988;48.016;7.800;2023-06-14T01:34:16;14.60;65.20
1976;DHT22;988;48.016;7.800;2023-06-14T01:36:43;14.60;65.50
1976;DHT22;988;48.016;7.800;2023-06-14T01:39:13;14.50;65.50
1976;DHT22;988;48.016;7.800;2023-06-14T01:41:39;14.50;66.10
1976;DHT22;988;48.016;7.800;2023-06-14T01:44:06;14.50;64.80
1976;DHT22;988;48.016;7.800;2023-06-14T01:46:32;14.40;64.30
1976;DHT22;988;48.016;7.800;2023-06-14T01:48:59;14.40;64.30
1976;DHT22;988;48.016;7.800;2023-06-14T01:51:24;14.40;65.50
1976;DHT22;988;48.016;7.800;2023-06-14T01:53:50;14.30;67.20
1976;DHT22;988;48.016;7.800;2023-06-14T01:56:15;14.30;67.40
1976;DHT22;988;48.016;7.800;2023-06-14T01:58:41;14.30;67.80
1976;DHT22;988;48.016;7.800;2023-06-14T02:01:07;14.30;67.90
1976;DHT22;988;48.016;7.800;2023-06-14T02:03:33;14.30;71.20
1976;DHT22;988;48.016;7.800;2023-06-14T02:05:59;14.20;71.20
1976;DHT22;988;48.016;7.800;2023-06-14T02:08:25;14.10;72.40
1976;DHT22;988;48.016;7.800;2023-06-14T02:10:51;14.10;72.50
1976;DHT22;988;48.016;7.800;2023-06-14T02:13:17;14.00;71.80
1976;DHT22;988;48.016;7.800;2023-06-14T02:15:42;14.10;70.70
1976;DHT22;988;48.016;7.800;2023-06-14T02:18:09;14.00;71.10
1976;DHT22;988;48.016;7.800;2023-06-14T02:20:35;13.90;70.60
1976;DHT22;988;48.016;7.800;2023-06-14T02:23:01;13.90;71.70
1976;DHT22;988;48.016;7.800;2023-06-14T02:25:26;13.80;70.70
1976;DHT22;988;48.016;7.800;2023-06-14T02:27:55;13.70;71.20
1976;DHT22;988;48.016;7.800;2023-06-14T02:30:21;13.80;70.80
1976;DHT22;988;48.016;7.800;2023-06-14T02:32:47;13.80;70.80
1976;DHT22;988;48.016;7.800;2023-06-14T02:35:14;13.80;70.30
1976;DHT22;988;48.016;7.800;2023-06-14T02:37:39;13.80;71.30
1976;DHT22;988;48.016;7.800;2023-06-14T02:40:05;13.90;70.30
1976;DHT22;988;48.016;7.800;2023-06-14T02:42:31;13.80;72.40
1976;DHT22;988;48.016;7.800;2023-06-14T02:44:57;13.70;71.80
1976;DHT22;988;48.016;7.800;2023-06-14T02:47:22;13.70;71.50
1976;DHT22;988;48.016;7.800;2023-06-14T02:49:48;13.70;73.60
1976;DHT22;988;48.016;7.800;2023-06-14T02:52:14;13.70;73.20
1976;DHT22;988;48.016;7.800;2023-06-14T02:54:40;13.70;72.20
1976;DHT22;988;48.016;7.800;2023-06-14T02:57:06;13.70;72.50
1976;DHT22;988;48.016;7.800;2023-06-14T02:59:33;13.70;72.00
1976;DHT22;988;48.016;7.800;2023-06-14T03:01:59;13.60;72.90
1976;DHT22;988;48.016;7.800;2023-06-14T03:04:25;13.50;72.20
1976;DHT22;988;48.016;7.800;2023-06-14T03:06:51;13.50;72.60
1976;DHT22;988;48.016;7.800;2023-06-14T03:09:19;13.60;74.10
1976;DHT22;988;48.016;7.800;2023-06-14T03:11:44;13.60;76.20
1976;DHT22;988;48.016;7.800;2023-06-14T03:14:10;13.50;74.40
1976;DHT22;988;48.016;7.800;2023-06-14T03:16:36;13.40;74.20
1976;DHT22;988;48.016;7.800;2023-06-14T03:19:02;13.40;74.50
1976;DHT22;988;48.016;7.800;2023-06-14T03:21:28;13.40;73.80
1976;DHT22;988;48.016;7.800;2023-06-14T03:23:54;13.30;73.80
1976;DHT22;988;48.016;7.800;2023-06-14T03:26:19;13.20;75.00
1976;DHT22;988;48.016;7.800;2023-06-14T03:28:46;13.10;74.80
1976;DHT22;988;48.016;7.800;2023-06-14T03:31:12;13.10;75.30
1976;DHT22;988;48.016;7.800;2023-06-14T03:33:38;13.10;75.50
1976;DHT22;988;48.016;7.800;2023-06-14T03:36:04;13.00;76.00
1976;DHT22;988;48.016;7.800;2023-06-14T03:38:30;13.00;75.90
1976;DHT22;988;48.016;7.800;2023-06-14T03:40:56;13.00;76.10
1976;DHT22;988;48.016;7.800;2023-06-14T03:43:21;13.00;76.30
1976;DHT22;988;48.016;7.800;2023-06-14T03:45:47;12.90;76.90
1976;DHT22;988;48.016;7.800;2023-06-14T03:48:13;13.00;75.90
1976;DHT22;988;48.016;7.800;2023-06-14T03:50:38;13.00;76.80
1976;DHT22;988;48.016;7.800;2023-06-14T03:53:05;12.90;77.30
1976;DHT22;988;48.016;7.800;2023-06-14T03:55:30;13.00;77.10
1976;DHT22;988;48.016;7.800;2023-06-14T03:57:59;12.90;78.10
1976;DHT22;988;48.016;7.800;2023-06-14T04:00:25;13.00;78.40
1976;DHT22;988;48.016;7.800;2023-06-14T04:02:50;13.10;79.80
1976;DHT22;988;48.016;7.800;2023-06-14T04:05:16;13.10;79.70
1976;DHT22;988;48.016;7.800;2023-06-14T04:07:45;13.10;80.20
1976;DHT22;988;48.016;7.800;2023-06-14T04:10:14;13.10;80.10
1976;DHT22;988;48.016;7.800;2023-06-14T04:12:41;13.30;80.00
1976;DHT22;988;48.016;7.800;2023-06-14T04:15:07;13.30;78.90
1976;DHT22;988;48.016;7.800;2023-06-14T04:17:33;13.30;78.50
1976;DHT22;988;48.016;7.800;2023-06-14T04:19:59;13.40;77.10
1976;DHT22;988;48.016;7.800;2023-06-14T04:22:26;13.60;77.10
1976;DHT22;988;48.016;7.800;2023-06-14T04:24:54;13.50;76.30
1976;DHT22;988;48.016;7.800;2023-06-14T04:27:22;13.60;77.40
1976;DHT22;988;48.016;7.800;2023-06-14T04:29:51;13.40;76.10
1976;DHT22;988;48.016;7.800;2023-06-14T04:32:27;13.70;76.80
1976;DHT22;988;48.016;7.800;2023-06-14T04:34:58;13.70;76.40
1976;DHT22;988;48.016;7.800;2023-06-14T04:37:24;13.80;76.60
1976;DHT22;988;48.016;7.800;2023-06-14T04:39:51;13.90;76.10
1976;DHT22;988;48.016;7.800;2023-06-14T04:42:17;14.00;75.30
1976;DHT22;988;48.016;7.800;2023-06-14T04:44:46;14.10;74.90
1976;DHT22;988;48.016;7.800;2023-06-14T04:47:13;14.20;75.40
1976;DHT22;988;48.016;7.800;2023-06-14T04:49:39;14.30;75.00
1976;DHT22;988;48.016;7.800;2023-06-14T04:52:06;14.30;75.10
1976;DHT22;988;48.016;7.800;2023-06-14T04:54:32;14.50;74.10
1976;DHT22;988;48.016;7.800;2023-06-14T04:56:59;14.60;73.80
1976;DHT22;988;48.016;7.800;2023-06-14T04:59:24;14.80;72.80
1976;DHT22;988;48.016;7.800;2023-06-14T05:01:51;14.80;72.30
1976;DHT22;988;48.016;7.800;2023-06-14T05:04:17;15.00;72.40
1976;DHT22;988;48.016;7.800;2023-06-14T05:06:43;15.20;72.30
1976;DHT22;988;48.016;7.800;2023-06-14T05:09:11;15.10;71.90
1976;DHT22;988;48.016;7.800;2023-06-14T05:11:36;15.40;71.80
1976;DHT22;988;48.016;7.800;2023-06-14T05:14:02;15.60;70.00
1976;DHT22;988;48.016;7.800;2023-06-14T05:16:27;15.90;64.90
1976;DHT22;988;48.016;7.800;2023-06-14T05:18:54;16.20;64.30
1976;DHT22;988;48.016;7.800;2023-06-14T05:21:20;16.30;63.80
1976;DHT22;988;48.016;7.800;2023-06-14T05:23:46;16.40;63.60
1976;DHT22;988;48.016;7.800;2023-06-14T05:26:11;16.50;63.30
1976;DHT22;988;48.016;7.800;2023-06-14T05:28:37;16.50;62.60
1976;DHT22;988;48.016;7.800;2023-06-14T05:31:03;16.50;63.50
1976;DHT22;988;48.016;7.800;2023-06-14T05:33:28;16.60;63.90
1976;DHT22;988;48.016;7.800;2023-06-14T05:35:54;16.70;65.50
1976;DHT22;988;48.016;7.800;2023-06-14T05:38:21;16.80;64.60
1976;DHT22;988;48.016;7.800;2023-06-14T05:40:46;16.90;64.70
1976;DHT22;988;48.016;7.800;2023-06-14T05:43:12;17.00;64.70
1976;DHT22;988;48.016;7.800;2023-06-14T05:45:37;17.20;65.20
1976;DHT22;988;48.016;7.800;2023-06-14T05:48:03;17.30;64.60
1976;DHT22;988;48.016;7.800;2023-06-14T05:50:29;17.40;64.30
1976;DHT22;988;48.016;7.800;2023-06-14T05:52:54;17.50;64.00
1976;DHT22;988;48.016;7.800;2023-06-14T05:55:20;17.40;63.50
1976;DHT22;988;48.016;7.800;2023-06-14T05:57:46;17.60;64.90
1976;DHT22;988;48.016;7.800;2023-06-14T06:00:13;17.60;65.30
1976;DHT22;988;48.016;7.800;2023-06-14T06:02:43;17.50;65.40
1976;DHT22;988;48.016;7.800;2023-06-14T06:05:10;17.60;65.60
1976;DHT22;988;48.016;7.800;2023-06-14T06:07:37;17.70;65.60
1976;DHT22;988;48.016;7.800;2023-06-14T06:10:03;17.80;66.20
1976;DHT22;988;48.016;7.800;2023-06-14T06:12:30;17.90;65.60
1976;DHT22;988;48.016;7.800;2023-06-14T06:14:55;17.90;66.20
1976;DHT22;988;48.016;7.800;2023-06-14T06:17:21;18.00;65.30
1976;DHT22;988;48.016;7.800;2023-06-14T06:19:47;18.20;65.70
1976;DHT22;988;48.016;7.800;2023-06-14T06:22:12;18.30;65.90
1976;DHT22;988;48.016;7.800;2023-06-14T06:24:38;18.20;65.40
1976;DHT22;988;48.016;7.800;2023-06-14T06:27:04;18.30;65.40
1976;DHT22;988;48.016;7.800;2023-06-14T06:29:29;18.50;65.80
1976;DHT22;988;48.016;7.800;2023-06-14T06:31:55;18.60;64.90
1976;DHT22;988;48.016;7.800;2023-06-14T06:34:21;18.80;63.90
1976;DHT22;988;48.016;7.800;2023-06-14T06:36:47;18.90;63.80
1976;DHT22;988;48.016;7.800;2023-06-14T06:39:13;19.10;62.60
1976;DHT22;988;48.016;7.800;2023-06-14T06:41:40;18.80;63.10
1976;DHT22;988;48.016;7.800;2023-06-14T06:44:07;19.00;63.90
1976;DHT22;988;48.016;7.800;2023-06-14T06:46:33;19.10;63.60
1976;DHT22;988;48.016;7.800;2023-06-14T06:49:00;19.30;63.90
1976;DHT22;988;48.016;7.800;2023-06-14T06:51:25;19.20;63.40
1976;DHT22;988;48.016;7.800;2023-06-14T06:53:54;19.30;63.60
1976;DHT22;988;48.016;7.800;2023-06-14T06:56:21;19.60;63.50
1976;DHT22;988;48.016;7.800;2023-06-14T06:58:49;19.70;62.50
1976;DHT22;988;48.016;7.800;2023-06-14T07:01:14;19.70;61.40
1976;DHT22;988;48.016;7.800;2023-06-14T07:03:41;19.90;61.40
1976;DHT22;988;48.016;7.800;2023-06-14T07:06:06;20.20;61.00
1976;DHT22;988;48.016;7.800;2023-06-14T07:08:32;20.10;61.50
1976;DHT22;988;48.016;7.800;2023-06-14T07:10:58;20.20;61.00
1976;DHT22;988;48.016;7.800;2023-06-14T07:13:23;20.40;61.40
1976;DHT22;988;48.016;7.800;2023-06-14T07:15:49;20.60;61.90
1976;DHT22;988;48.016;7.800;2023-06-14T07:18:15;20.70;60.30
1976;DHT22;988;48.016;7.800;2023-06-14T07:20:41;20.90;59.80
1976;DHT22;988;48.016;7.800;2023-06-14T07:23:08;21.20;59.60
1976;DHT22;988;48.016;7.800;2023-06-14T07:25:33;21.20;59.20
1976;DHT22;988;48.016;7.800;2023-06-14T07:27:59;21.40;58.80
1976;DHT22;988;48.016;7.800;2023-06-14T07:30:24;21.40;57.50
1976;DHT22;988;48.016;7.800;2023-06-14T07:32:53;21.60;57.20
1976;DHT22;988;48.016;7.800;2023-06-14T07:35:18;21.70;57.30
1976;DHT22;988;48.016;7.800;2023-06-14T07:37:44;21.90;56.90
1976;DHT22;988;48.016;7.800;2023-06-14T07:40:13;22.00;56.50
1976;DHT22;988;48.016;7.800;2023-06-14T07:42:39;22.10;56.30
1976;DHT22;988;48.016;7.800;2023-06-14T07:45:05;22.20;55.00
1976;DHT22;988;48.016;7.800;2023-06-14T07:47:32;22.60;55.30
1976;DHT22;988;48.016;7.800;2023-06-14T07:49:57;23.40;54.80
1976;DHT22;988;48.016;7.800;2023-06-14T07:52:23;24.40;52.80
1976;DHT22;988;48.016;7.800;2023-06-14T07:54:48;25.40;51.00
1976;DHT22;988;48.016;7.800;2023-06-14T07:57:14;26.90;48.50
1976;DHT22;988;48.016;7.800;2023-06-14T07:59:40;27.90;46.20
1976;DHT22;988;48.016;7.800;2023-06-14T08:02:06;28.90;45.40
1976;DHT22;988;48.016;7.800;2023-06-14T08:04:32;29.00;44.10
1976;DHT22;988;48.016;7.800;2023-06-14T08:06:59;29.40;44.20
1976;DHT22;988;48.016;7.800;2023-06-14T08:09:25;30.20;43.00
1976;DHT22;988;48.016;7.800;2023-06-14T08:11:53;31.60;41.50
1976;DHT22;988;48.016;7.800;2023-06-14T08:14:18;32.60;39.50
1976;DHT22;988;48.016;7.800;2023-06-14T08:16:44;33.10;38.70
1976;DHT22;988;48.016;7.800;2023-06-14T08:19:09;33.80;36.90
1976;DHT22;988;48.016;7.800;2023-06-14T08:21:35;34.40;36.40
1976;DHT22;988;48.016;7.800;2023-06-14T08:24:02;35.20;35.30
1976;DHT22;988;48.016;7.800;2023-06-14T08:26:27;36.50;34.70
1976;DHT22;988;48.016;7.800;2023-06-14T08:28:57;36.50;33.30
1976;DHT22;988;48.016;7.800;2023-06-14T08:31:23;37.10;32.80
1976;DHT22;988;48.016;7.800;2023-06-14T08:33:49;38.00;31.90
1976;DHT22;988;48.016;7.800;2023-06-14T08:36:15;38.20;32.00
1976;DHT22;988;48.016;7.800;2023-06-14T08:38:40;38.70;31.30
1976;DHT22;988;48.016;7.800;2023-06-14T08:41:06;39.40;30.30
1976;DHT22;988;48.016;7.800;2023-06-14T08:43:32;39.70;30.00
1976;DHT22;988;48.016;7.800;2023-06-14T08:46:02;40.40;29.90
1976;DHT22;988;48.016;7.800;2023-06-14T08:48:28;41.20;27.80
1976;DHT22;988;48.016;7.800;2023-06-14T08:50:56;41.30;27.90
1976;DHT22;988;48.016;7.800;2023-06-14T08:53:28;40.60;28.40
1976;DHT22;988;48.016;7.800;2023-06-14T08:55:58;40.70;28.40
1976;DHT22;988;48.016;7.800;2023-06-14T08:58:27;41.60;28.00
1976;DHT22;988;48.016;7.800;2023-06-14T09:00:55;41.20;27.70
1976;DHT22;988;48.016;7.800;2023-06-14T09:03:21;40.40;27.60
1976;DHT22;988;48.016;7.800;2023-06-14T09:05:48;41.20;27.50
1976;DHT22;988;48.016;7.800;2023-06-14T09:08:15;42.20;25.80
1976;DHT22;988;48.016;7.800;2023-06-14T09:10:41;42.60;26.10
1976;DHT22;988;48.016;7.800;2023-06-14T09:13:07;42.90;25.90
1976;DHT22;988;48.016;7.800;2023-06-14T09:15:34;42.10;26.30
1976;DHT22;988;48.016;7.800;2023-06-14T09:18:03;42.40;26.40
1976;DHT22;988;48.016;7.800;2023-06-14T09:20:30;43.20;25.90
1976;DHT22;988;48.016;7.800;2023-06-14T09:22:56;43.20;26.20
1976;DHT22;988;48.016;7.800;2023-06-14T09:25:22;43.00;26.10
1976;DHT22;988;48.016;7.800;2023-06-14T09:27:48;44.10;25.80
1976;DHT22;988;48.016;7.800;2023-06-14T09:30:13;44.90;25.60
1976;DHT22;988;48.016;7.800;2023-06-14T09:32:39;45.00;25.10
1976;DHT22;988;48.016;7.800;2023-06-14T09:35:09;44.30;25.40
1976;DHT22;988;48.016;7.800;2023-06-14T09:37:35;44.40;25.70
1976;DHT22;988;48.016;7.800;2023-06-14T09:40:03;44.40;25.70
1976;DHT22;988;48.016;7.800;2023-06-14T09:42:29;44.40;24.80
1976;DHT22;988;48.016;7.800;2023-06-14T09:44:56;44.00;25.50
1976;DHT22;988;48.016;7.800;2023-06-14T09:47:22;43.80;26.20
1976;DHT22;988;48.016;7.800;2023-06-14T09:49:50;43.60;25.10
1976;DHT22;988;48.016;7.800;2023-06-14T09:52:18;43.70;24.90
1976;DHT22;988;48.016;7.800;2023-06-14T09:54:45;44.60;25.20
1976;DHT22;988;48.016;7.800;2023-06-14T09:57:22;43.70;25.10
1976;DHT22;988;48.016;7.800;2023-06-14T09:59:48;43.90;25.20
1976;DHT22;988;48.016;7.800;2023-06-14T10:02:26;44.70;24.60
1976;DHT22;988;48.016;7.800;2023-06-14T10:05:07;44.30;25.40
1976;DHT22;988;48.016;7.800;2023-06-14T10:07:48;45.10;24.40
1976;DHT22;988;48.016;7.800;2023-06-14T10:10:14;45.60;24.00
1976;DHT22;988;48.016;7.800;2023-06-14T10:12:40;45.40;24.10
1976;DHT22;988;48.016;7.800;2023-06-14T10:15:09;44.20;24.80
1976;DHT22;988;48.016;7.800;2023-06-14T10:17:40;44.60;24.40
1976;DHT22;988;48.016;7.800;2023-06-14T10:20:37;43.60;25.30
1976;DHT22;988;48.016;7.800;2023-06-14T10:23:24;44.40;24.90
1976;DHT22;988;48.016;7.800;2023-06-14T10:25:56;44.70;24.20
1976;DHT22;988;48.016;7.800;2023-06-14T10:28:23;45.00;23.30
1976;DHT22;988;48.016;7.800;2023-06-14T10:31:09;44.80;24.00
1976;DHT22;988;48.016;7.800;2023-06-14T10:39:01;45.10;24.50
1976;DHT22;988;48.016;7.800;2023-06-14T10:41:29;44.80;24.30
1976;DHT22;988;48.016;7.800;2023-06-14T10:46:36;46.20;23.80
1976;DHT22;988;48.016;7.800;2023-06-14T10:49:02;44.70;23.20
1976;DHT22;988;48.016;7.800;2023-06-14T10:51:30;44.40;24.20
1976;DHT22;988;48.016;7.800;2023-06-14T10:53:59;45.40;23.80
1976;DHT22;988;48.016;7.800;2023-06-14T10:56:31;44.60;23.20
1976;DHT22;988;48.016;7.800;2023-06-14T10:58:58;45.50;23.30
1976;DHT22;988;48.016;7.800;2023-06-14T11:04:07;46.00;22.60
1976;DHT22;988;48.016;7.800;2023-06-14T11:06:45;46.00;22.70
1976;DHT22;988;48.016;7.800;2023-06-14T11:12:27;45.50;23.20
1976;DHT22;988;48.016;7.800;2023-06-14T11:14:53;45.90;23.30
1976;DHT22;988;48.016;7.800;2023-06-14T11:17:19;46.00;23.00
1976;DHT22;988;48.016;7.800;2023-06-14T11:19:45;45.90;23.80
1976;DHT22;988;48.016;7.800;2023-06-14T11:22:11;46.20;23.10
1976;DHT22;988;48.016;7.800;2023-06-14T11:24:37;45.60;23.10
1976;DHT22;988;48.016;7.800;2023-06-14T11:27:03;46.40;22.50
1976;DHT22;988;48.016;7.800;2023-06-14T11:29:29;47.10;22.10
1976;DHT22;988;48.016;7.800;2023-06-14T11:31:55;47.00;22.40
1976;DHT22;988;48.016;7.800;2023-06-14T11:34:20;47.00;22.80
1976;DHT22;988;48.016;7.800;2023-06-14T11:36:46;45.80;22.80
1976;DHT22;988;48.016;7.800;2023-06-14T11:39:13;46.40;22.90
1976;DHT22;988;48.016;7.800;2023-06-14T11:41:43;46.30;22.90
1976;DHT22;988;48.016;7.800;2023-06-14T11:44:09;45.80;22.30
1976;DHT22;988;48.016;7.800;2023-06-14T11:46:35;46.10;23.30
1976;DHT22;988;48.016;7.800;2023-06-14T11:49:02;45.40;23.30
1976;DHT22;988;48.016;7.800;2023-06-14T11:51:33;45.00;23.90
1976;DHT22;988;48.016;7.800;2023-06-14T11:53:59;45.30;24.20
1976;DHT22;988;48.016;7.800;2023-06-14T11:56:25;45.80;24.00
1976;DHT22;988;48.016;7.800;2023-06-14T11:58:52;46.40;22.80
1976;DHT22;988;48.016;7.800;2023-06-14T12:01:21;46.50;22.80
1976;DHT22;988;48.016;7.800;2023-06-14T12:03:52;46.20;22.80
1976;DHT22;988;48.016;7.800;2023-06-14T12:06:29;44.00;23.70
1976;DHT22;988;48.016;7.800;2023-06-14T12:08:58;44.80;24.00
1976;DHT22;988;48.016;7.800;2023-06-14T12:11:28;45.00;23.00
1976;DHT22;988;48.016;7.800;2023-06-14T12:13:53;44.10;23.60
1976;DHT22;988;48.016;7.800;2023-06-14T12:16:19;44.50;23.50
1976;DHT22;988;48.016;7.800;2023-06-14T12:18:45;44.50;23.40
1976;DHT22;988;48.016;7.800;2023-06-14T12:21:11;43.90;24.00
1976;DHT22;988;48.016;7.800;2023-06-14T12:26:08;44.70;23.90
1976;DHT22;988;48.016;7.800;2023-06-14T12:28:34;44.40;23.50
1976;DHT22;988;48.016;7.800;2023-06-14T12:30:59;44.50;23.00
1976;DHT22;988;48.016;7.800;2023-06-14T12:33:25;43.70;24.60
1976;DHT22;988;48.016;7.800;2023-06-14T12:35:53;43.80;23.70
1976;DHT22;988;48.016;7.800;2023-06-14T12:38:20;44.00;23.70
1976;DHT22;988;48.016;7.800;2023-06-14T12:40:46;43.90;24.20
1976;DHT22;988;48.016;7.800;2023-06-14T12:43:12;43.30;24.30
1976;DHT22;988;48.016;7.800;2023-06-14T12:45:37;42.50;24.80
1976;DHT22;988;48.016;7.800;2023-06-14T12:48:03;42.80;24.80
1976;DHT22;988;48.016;7.800;2023-06-14T12:50:29;42.60;24.80
1976;DHT22;988;48.016;7.800;2023-06-14T12:52:55;41.70;25.00
1976;DHT22;988;48.016;7.800;2023-06-14T12:55:21;41.80;25.20
1976;DHT22;988;48.016;7.800;2023-06-14T12:57:48;41.50;25.30
1976;DHT22;988;48.016;7.800;2023-06-14T13:00:15;41.60;25.10
1976;DHT22;988;48.016;7.800;2023-06-14T13:02:41;41.50;25.90
1976;DHT22;988;48.016;7.800;2023-06-14T13:05:06;41.40;25.80
1976;DHT22;988;48.016;7.800;2023-06-14T13:07:32;40.80;25.50
1976;DHT22;988;48.016;7.800;2023-06-14T13:09:58;40.40;26.00
1976;DHT22;988;48.016;7.800;2023-06-14T13:12:24;39.50;26.20
1976;DHT22;988;48.016;7.800;2023-06-14T13:14:49;39.60;26.30
1976;DHT22;988;48.016;7.800;2023-06-14T13:17:15;38.70;26.90
1976;DHT22;988;48.016;7.800;2023-06-14T13:19:41;38.70;27.40
1976;DHT22;988;48.016;7.800;2023-06-14T13:22:07;38.60;27.20
1976;DHT22;988;48.016;7.800;2023-06-14T13:24:34;37.60;27.80
1976;DHT22;988;48.016;7.800;2023-06-14T13:26:59;38.00;27.60
1976;DHT22;988;48.016;7.800;2023-06-14T13:29:25;38.00;27.20
1976;DHT22;988;48.016;7.800;2023-06-14T13:31:52;37.80;27.70
1976;DHT22;988;48.016;7.800;2023-06-14T13:34:18;37.50;28.60
1976;DHT22;988;48.016;7.800;2023-06-14T13:36:43;37.80;28.40
1976;DHT22;988;48.016;7.800;2023-06-14T13:39:09;37.90;28.00
1976;DHT22;988;48.016;7.800;2023-06-14T13:41:36;37.90;27.60
1976;DHT22;988;48.016;7.800;2023-06-14T13:44:02;37.40;27.60
1976;DHT22;988;48.016;7.800;2023-06-14T13:46:30;36.90;29.00
1976;DHT22;988;48.016;7.800;2023-06-14T13:48:56;36.50;28.70
1976;DHT22;988;48.016;7.800;2023-06-14T13:51:23;36.30;29.00
1976;DHT22;988;48.016;7.800;2023-06-14T13:53:49;36.00;29.50
1976;DHT22;988;48.016;7.800;2023-06-14T13:56:16;36.20;28.80
1976;DHT22;988;48.016;7.800;2023-06-14T13:58:42;35.20;29.30
1976;DHT22;988;48.016;7.800;2023-06-14T14:01:08;35.10;29.80
1976;DHT22;988;48.016;7.800;2023-06-14T14:03:34;35.20;30.00
1976;DHT22;988;48.016;7.800;2023-06-14T14:06:01;34.90;29.60
1976;DHT22;988;48.016;7.800;2023-06-14T14:08:27;34.70;29.90
1976;DHT22;988;48.016;7.800;2023-06-14T14:10:52;35.10;30.20
1976;DHT22;988;48.016;7.800;2023-06-14T14:13:18;34.90;29.70
1976;DHT22;988;48.016;7.800;2023-06-14T14:15:44;35.00;30.20
1976;DHT22;988;48.016;7.800;2023-06-14T14:18:10;34.90;30.10
1976;DHT22;988;48.016;7.800;2023-06-14T14:20:35;34.30;30.10
1976;DHT22;988;48.016;7.800;2023-06-14T14:23:01;34.10;30.90
1976;DHT22;988;48.016;7.800;2023-06-14T14:25:27;34.00;30.50
1976;DHT22;988;48.016;7.800;2023-06-14T14:27:53;33.70;30.60
1976;DHT22;988;48.016;7.800;2023-06-14T14:30:19;33.30;30.60
1976;DHT22;988;48.016;7.800;2023-06-14T14:32:49;33.10;31.00
1976;DHT22;988;48.016;7.800;2023-06-14T14:35:16;33.10;31.00
1976;DHT22;988;48.016;7.800;2023-06-14T14:37:41;33.00;31.80
1976;DHT22;988;48.016;7.800;2023-06-14T14:40:07;33.10;31.90
1976;DHT22;988;48.016;7.800;2023-06-14T14:42:35;32.50;32.00
1976;DHT22;988;48.016;7.800;2023-06-14T14:45:01;32.30;32.70
1976;DHT22;988;48.016;7.800;2023-06-14T14:47:26;32.50;32.70
1976;DHT22;988;48.016;7.800;2023-06-14T14:49:52;32.20;32.20
1976;DHT22;988;48.016;7.800;2023-06-14T14:52:17;31.70;33.00
1976;DHT22;988;48.016;7.800;2023-06-14T14:54:43;31.60;34.00
1976;DHT22;988;48.016;7.800;2023-06-14T14:57:08;31.50;34.00
1976;DHT22;988;48.016;7.800;2023-06-14T14:59:34;31.50;33.90
1976;DHT22;988;48.016;7.800;2023-06-14T15:02:00;31.60;34.00
1976;DHT22;988;48.016;7.800;2023-06-14T15:04:25;31.80;34.20
1976;DHT22;988;48.016;7.800;2023-06-14T15:06:51;31.60;33.80
1976;DHT22;988;48.016;7.800;2023-06-14T15:09:16;31.20;34.30
1976;DHT22;988;48.016;7.800;2023-06-14T15:11:42;31.30;34.70
1976;DHT22;988;48.016;7.800;2023-06-14T15:14:10;31.20;35.00
1976;DHT22;988;48.016;7.800;2023-06-14T15:16:35;30.90;35.50
1976;DHT22;988;48.016;7.800;2023-06-14T15:19:01;31.10;35.40
1976;DHT22;988;48.016;7.800;2023-06-14T15:21:27;31.10;34.80
1976;DHT22;988;48.016;7.800;2023-06-14T15:23:52;30.80;35.70
1976;DHT22;988;48.016;7.800;2023-06-14T15:26:20;30.50;35.80
1976;DHT22;988;48.016;7.800;2023-06-14T15:28:46;30.50;36.00
1976;DHT22;988;48.016;7.800;2023-06-14T15:31:11;30.40;35.50
1976;DHT22;988;48.016;7.800;2023-06-14T15:33:37;30.50;35.10
1976;DHT22;988;48.016;7.800;2023-06-14T15:36:02;30.20;35.10
1976;DHT22;988;48.016;7.800;2023-06-14T15:38:28;30.10;35.50
1976;DHT22;988;48.016;7.800;2023-06-14T15:40:54;30.00;36.30
1976;DHT22;988;48.016;7.800;2023-06-14T15:43:20;29.90;35.80
1976;DHT22;988;48.016;7.800;2023-06-14T15:45:45;29.80;36.00
1976;DHT22;988;48.016;7.800;2023-06-14T15:48:11;29.50;36.10
1976;DHT22;988;48.016;7.800;2023-06-14T15:50:36;29.60;36.90
1976;DHT22;988;48.016;7.800;2023-06-14T15:53:02;29.80;36.40
1976;DHT22;988;48.016;7.800;2023-06-14T15:55:28;29.60;36.20
1976;DHT22;988;48.016;7.800;2023-06-14T15:57:53;29.30;37.30
1976;DHT22;988;48.016;7.800;2023-06-14T16:00:19;29.40;37.40
1976;DHT22;988;48.016;7.800;2023-06-14T16:02:46;29.50;37.50
1976;DHT22;988;48.016;7.800;2023-06-14T16:05:12;29.00;36.90
1976;DHT22;988;48.016;7.800;2023-06-14T16:07:38;28.80;38.80
1976;DHT22;988;48.016;7.800;2023-06-14T16:10:04;28.70;37.80
1976;DHT22;988;48.016;7.800;2023-06-14T16:12:30;28.50;38.50
1976;DHT22;988;48.016;7.800;2023-06-14T16:14:55;28.60;38.30
1976;DHT22;988;48.016;7.800;2023-06-14T16:17:21;28.70;38.40
1976;DHT22;988;48.016;7.800;2023-06-14T16:19:47;28.60;38.10
1976;DHT22;988;48.016;7.800;2023-06-14T16:22:12;28.50;38.60
1976;DHT22;988;48.016;7.800;2023-06-14T16:24:38;28.60;39.10
1976;DHT22;988;48.016;7.800;2023-06-14T16:27:03;28.60;39.20
1976;DHT22;988;48.016;7.800;2023-06-14T16:29:31;28.60;38.70
1976;DHT22;988;48.016;7.800;2023-06-14T16:31:57;28.50;38.80
1976;DHT22;988;48.016;7.800;2023-06-14T16:34:23;28.40;38.40